Time;durP1;ratioP1;P1;durP2;ratioP2;P2;SDS_P1;SDS_P2;PMS_P1;PMS_P2;Temp;Humidity;BMP_temperature;BMP_pressure;BME280_temperature;BME280_humidity;BME280_pressure;Samples;Min_cycle;Max_cycle;Signal;HPM_P1;HPM_P2
2021/03/03 00:01:29;;;;;;;18.53;9.60;;;8.70;99.90;;;;;;5093094;28;20199;-68
2021/03/03 00:03:55;;;;;;;16.53;10.37;;;8.60;99.90;;;;;;5092834;28;20170;-68
2021/03/03 00:06:20;;;;;;;17.77;9.27;;;8.50;99.90;;;;;;5092792;28;20538;-68
2021/03/03 00:08:46;;;;;;;21.83;11.83;;;8.50;99.90;;;;;;5092643;28;20191;-68
2021/03/03 00:11:11;;;;;;;14.30;10.37;;;8.70;99.90;;;;;;5092688;28;20188;-67
2021/03/03 00:13:37;;;;;;;19.70;10.57;;;8.70;99.90;;;;;;5092760;28;20251;-68
2021/03/03 00:16:03;;;;;;;21.53;9.80;;;8.70;99.90;;;;;;5092636;28;20734;-67
2021/03/03 00:18:28;;;;;;;17.40;10.10;;;8.60;99.90;;;;;;5092654;28;20179;-67
2021/03/03 00:20:54;;;;;;;16.20;8.87;;;8.70;99.90;;;;;;5092544;28;20171;-67
2021/03/03 00:23:19;;;;;;;18.73;10.07;;;8.70;99.90;;;;;;5092889;28;20180;-68
2021/03/03 00:25:45;;;;;;;13.73;9.50;;;8.70;99.90;;;;;;5093204;28;20178;-67
2021/03/03 00:28:10;;;;;;;18.03;9.20;;;8.50;99.90;;;;;;5095285;28;20167;-68
2021/03/03 00:30:36;;;;;;;21.40;9.40;;;8.30;99.90;;;;;;5096376;28;20250;-68
2021/03/03 00:33:02;;;;;;;13.93;9.20;;;8.30;99.90;;;;;;5096316;28;20191;-68
2021/03/03 00:35:27;;;;;;;15.53;9.27;;;8.30;99.90;;;;;;5096438;28;20191;-68
2021/03/03 00:37:53;;;;;;;18.20;11.03;;;8.30;99.90;;;;;;5096635;28;20171;-67
2021/03/03 00:40:18;;;;;;;17.93;10.00;;;8.30;99.90;;;;;;5096249;28;20246;-68
2021/03/03 00:42:44;;;;;;;17.53;9.70;;;8.30;99.90;;;;;;5096125;28;20195;-68
2021/03/03 00:45:10;;;;;;;15.80;9.53;;;8.40;99.90;;;;;;5096187;28;20213;-67
2021/03/03 00:47:36;;;;;;;20.67;11.13;;;8.30;99.90;;;;;;5096324;28;20173;-67
2021/03/03 00:50:03;;;;;;;20.30;10.13;;;8.50;99.90;;;;;;5096305;28;20414;-68
2021/03/03 00:52:28;;;;;;;20.97;10.77;;;8.50;99.90;;;;;;5096225;28;20210;-67
2021/03/03 00:54:54;;;;;;;19.50;10.13;;;8.40;99.90;;;;;;5095974;28;20463;-67
2021/03/03 00:57:19;;;;;;;19.67;11.00;;;8.20;99.90;;;;;;5096083;28;20200;-67
2021/03/03 00:59:45;;;;;;;20.53;11.33;;;8.40;99.90;;;;;;5095881;28;20175;-67
2021/03/03 01:02:10;;;;;;;18.20;9.83;;;8.40;99.90;;;;;;5096021;28;20743;-67
2021/03/03 01:04:37;;;;;;;19.00;10.97;;;8.30;99.90;;;;;;5095792;28;20202;-67
2021/03/03 01:07:03;;;;;;;23.40;12.30;;;8.20;99.90;;;;;;5095606;28;20733;-67
2021/03/03 01:09:28;;;;;;;14.23;9.27;;;8.30;99.90;;;;;;5095930;28;20541;-67
2021/03/03 01:11:55;;;;;;;19.60;11.10;;;8.30;99.90;;;;;;5095854;28;20194;-67
2021/03/03 01:14:21;;;;;;;17.93;10.23;;;8.30;99.90;;;;;;5095896;28;20178;-68
2021/03/03 01:16:51;;;;;;;19.40;10.73;;;8.10;99.90;;;;;;5095441;28;20449;-67
2021/03/03 01:19:17;;;;;;;19.03;10.70;;;8.10;99.90;;;;;;5095751;28;20164;-68
2021/03/03 01:21:43;;;;;;;17.27;8.87;;;8.10;99.90;;;;;;5095395;28;20422;-68
2021/03/03 01:24:09;;;;;;;22.40;10.57;;;8.10;99.90;;;;;;5095668;28;20919;-68
2021/03/03 01:26:34;;;;;;;18.60;10.30;;;7.90;99.90;;;;;;5095626;28;20185;-68
2021/03/03 01:29:00;;;;;;;17.73;9.90;;;8.00;99.90;;;;;;5095333;28;20381;-68
2021/03/03 01:31:25;;;;;;;20.97;11.80;;;8.00;99.90;;;;;;5095165;28;20191;-67
2021/03/03 01:33:51;;;;;;;17.93;10.23;;;8.00;99.90;;;;;;5095269;28;20199;-68
2021/03/03 01:36:16;;;;;;;17.20;10.60;;;8.10;99.90;;;;;;5095429;28;20701;-68
2021/03/03 01:38:42;;;;;;;16.90;11.10;;;8.10;99.90;;;;;;5094239;28;20163;-68
2021/03/03 01:41:07;;;;;;;18.63;9.40;;;7.90;99.90;;;;;;5095217;28;20180;-67
2021/03/03 01:43:33;;;;;;;16.60;8.60;;;7.90;99.90;;;;;;5095079;28;20517;-68
2021/03/03 01:45:59;;;;;;;19.63;10.83;;;7.90;99.90;;;;;;5095221;28;20536;-68
2021/03/03 01:48:25;;;;;;;16.90;10.30;;;7.80;99.90;;;;;;5094926;28;20183;-68
2021/03/03 01:50:52;;;;;;;18.37;10.03;;;7.90;99.90;;;;;;5094980;28;20417;-68
2021/03/03 01:53:17;;;;;;;23.65;10.70;;;7.90;99.90;;;;;;5094787;28;20167;-68
2021/03/03 01:55:43;;;;;;;19.57;9.50;;;8.00;99.90;;;;;;5094623;28;20225;-68
2021/03/03 01:58:09;;;;;;;23.87;12.57;;;7.90;99.90;;;;;;5094900;28;20163;-67
2021/03/03 02:00:35;;;;;;;16.85;8.52;;;8.00;99.90;;;;;;5094545;28;20218;-67
2021/03/03 02:03:00;;;;;;;31.17;11.00;;;8.00;99.90;;;;;;5094474;28;20559;-68
2021/03/03 02:05:26;;;;;;;18.70;11.03;;;7.90;99.90;;;;;;5094749;28;20174;-68
2021/03/03 02:08:16;;;;;;;17.90;9.90;;;7.90;99.90;;;;;;5094447;28;20187;-67
2021/03/03 02:11:06;;;;;;;20.97;10.27;;;8.00;99.90;;;;;;5094655;28;20168;-68
2021/03/03 02:13:36;;;;;;;14.60;9.65;;;7.90;99.90;;;;;;5094343;28;20489;-67
2021/03/03 02:16:04;;;;;;;17.05;9.95;;;8.00;99.90;;;;;;5094272;28;20218;-68
2021/03/03 02:18:31;;;;;;;18.63;10.00;;;7.90;99.90;;;;;;5094225;28;20166;-67
2021/03/03 02:21:07;;;;;;;17.42;10.07;;;7.90;99.90;;;;;;5094464;28;20500;-68
2021/03/03 02:23:38;;;;;;;15.90;10.47;;;8.00;99.90;;;;;;5094580;28;20153;-68
2021/03/03 02:26:04;;;;;;;19.77;10.27;;;8.00;99.90;;;;;;5094422;28;20385;-67
2021/03/03 02:28:31;;;;;;;21.40;11.10;;;7.90;99.90;;;;;;5094083;28;20926;-67
2021/03/03 02:30:57;;;;;;;17.55;10.00;;;7.90;99.90;;;;;;5093998;28;20405;-67
2021/03/03 02:33:23;;;;;;;18.63;10.40;;;7.80;99.90;;;;;;5094066;28;20171;-67
2021/03/03 02:35:49;;;;;;;21.13;11.40;;;7.80;99.90;;;;;;5093956;28;20466;-67
2021/03/03 02:38:15;;;;;;;18.95;10.63;;;7.80;99.90;;;;;;5093988;28;20164;-68
2021/03/03 02:40:43;;;;;;;22.03;10.40;;;7.70;99.90;;;;;;5093957;28;20169;-67
2021/03/03 02:43:18;;;;;;;18.83;11.05;;;7.60;99.90;;;;;;5093864;28;20501;-67
2021/03/03 02:45:48;;;;;;;23.92;11.20;;;7.50;99.90;;;;;;5094038;28;20160;-68
2021/03/03 02:48:15;;;;;;;17.90;10.55;;;7.30;99.90;;;;;;5093988;28;20171;-68
2021/03/03 02:50:41;;;;;;;26.50;10.10;;;7.50;99.90;;;;;;5093920;28;20167;-67
2021/03/03 02:53:07;;;;;;;18.33;11.50;;;7.50;99.90;;;;;;5093615;28;20168;-68
2021/03/03 02:55:33;;;;;;;14.77;10.88;;;7.40;99.90;;;;;;5093799;28;20571;-68
2021/03/03 02:58:00;;;;;;;17.33;9.10;;;7.60;99.90;;;;;;5093537;28;20628;-67
2021/03/03 03:00:31;;;;;;;18.08;10.32;;;7.70;99.90;;;;;;5093455;28;20263;-68
2021/03/03 03:03:15;;;;;;;15.85;8.73;;;7.70;99.90;;;;;;5093389;28;20187;-68
2021/03/03 03:05:47;;;;;;;18.40;9.93;;;7.60;99.90;;;;;;5093783;28;20238;-67
2021/03/03 03:08:16;;;;;;;17.47;10.03;;;7.50;99.90;;;;;;5093561;28;20598;-68
2021/03/03 03:10:42;;;;;;;19.15;10.73;;;7.50;99.90;;;;;;5093682;28;20417;-68
2021/03/03 03:13:11;;;;;;;14.32;9.30;;;7.40;99.90;;;;;;5093360;28;20545;-68
2021/03/03 03:15:37;;;;;;;20.43;9.93;;;7.40;99.90;;;;;;5093530;28;20553;-68
2021/03/03 03:18:44;;;;;;;20.05;10.02;;;7.40;99.90;;;;;;5093462;28;20763;-67
2021/03/03 03:21:11;;;;;;;18.23;9.52;;;7.30;99.90;;;;;;5092671;28;20203;-67
2021/03/03 03:23:39;;;;;;;22.42;9.40;;;7.40;99.90;;;;;;5093393;28;20165;-68
2021/03/03 03:26:06;;;;;;;21.33;10.50;;;7.60;99.90;;;;;;5093114;28;20518;-68
2021/03/03 03:28:35;;;;;;;19.95;9.93;;;7.70;99.90;;;;;;5093101;28;20164;-67
2021/03/03 03:31:01;;;;;;;16.10;10.73;;;7.60;99.90;;;;;;5092973;28;20187;-67
2021/03/03 03:33:27;;;;;;;17.10;10.70;;;7.40;99.90;;;;;;5093014;28;20640;-68
2021/03/03 03:35:52;;;;;;;21.37;9.83;;;7.30;99.90;;;;;;5092984;28;20487;-68
2021/03/03 03:38:18;;;;;;;19.00;10.70;;;7.30;99.90;;;;;;5092954;28;20172;-68
2021/03/03 03:40:44;;;;;;;21.67;10.13;;;7.30;99.90;;;;;;5093264;28;20247;-68
2021/03/03 03:43:12;;;;;;;24.00;12.60;;;7.50;99.90;;;;;;5093308;28;20166;-68
2021/03/03 03:45:38;;;;;;;18.85;10.20;;;7.50;99.90;;;;;;5092980;28;20163;-68
2021/03/03 03:48:04;;;;;;;17.47;9.23;;;7.40;99.90;;;;;;5093166;28;20254;-68
2021/03/03 03:50:30;;;;;;;19.02;10.35;;;7.60;99.90;;;;;;5092974;28;20401;-68
2021/03/03 03:52:57;;;;;;;21.77;8.98;;;7.40;99.90;;;;;;5092819;28;20193;-68
2021/03/03 03:55:30;;;;;;;16.60;9.73;;;7.50;99.90;;;;;;5092891;28;20175;-67
2021/03/03 03:57:56;;;;;;;16.05;10.40;;;7.80;99.90;;;;;;5092845;28;20193;-67
2021/03/03 04:00:22;;;;;;;23.87;10.90;;;7.60;99.90;;;;;;5093187;28;20175;-67
2021/03/03 04:02:48;;;;;;;23.80;11.20;;;7.70;99.90;;;;;;5095081;28;20183;-68
2021/03/03 04:05:15;;;;;;;17.45;9.80;;;7.70;99.90;;;;;;5097073;28;20179;-67
2021/03/03 04:07:41;;;;;;;22.55;11.32;;;7.60;99.90;;;;;;5096926;28;20262;-67
2021/03/03 04:10:27;;;;;;;23.43;10.77;;;7.50;99.90;;;;;;5097104;28;20207;-68
2021/03/03 04:12:53;;;;;;;17.83;9.63;;;7.50;99.90;;;;;;5096915;28;21001;-67
2021/03/03 04:15:19;;;;;;;21.33;9.53;;;7.50;99.90;;;;;;5096974;28;20175;-67
2021/03/03 04:17:45;;;;;;;21.37;9.70;;;7.40;99.90;;;;;;5096692;28;20176;-68
2021/03/03 04:20:11;;;;;;;18.00;10.50;;;7.30;99.90;;;;;;5096643;28;20175;-68
2021/03/03 04:22:38;;;;;;;19.55;10.70;;;7.50;99.90;;;;;;5095260;28;20191;-67
2021/03/03 04:25:05;;;;;;;15.98;10.13;;;7.70;99.90;;;;;;5096971;28;20540;-68
2021/03/03 04:27:31;;;;;;;18.83;9.65;;;7.60;99.90;;;;;;5096410;28;20195;-68
2021/03/03 04:29:56;;;;;;;18.57;9.90;;;7.70;99.90;;;;;;5096893;28;20644;-68
2021/03/03 04:32:22;;;;;;;21.00;10.90;;;7.60;99.90;;;;;;5096475;28;20200;-68
2021/03/03 04:34:47;;;;;;;21.60;10.70;;;7.60;99.90;;;;;;5096380;28;20172;-68
2021/03/03 04:37:13;;;;;;;20.20;9.60;;;7.70;99.90;;;;;;5096195;28;20201;-67
2021/03/03 04:39:38;;;;;;;19.97;11.00;;;7.60;99.90;;;;;;5096261;28;20177;-68
2021/03/03 04:42:04;;;;;;;15.47;9.60;;;7.40;99.90;;;;;;5096273;28;20555;-68
2021/03/03 04:44:31;;;;;;;19.63;10.48;;;7.50;99.90;;;;;;5096008;28;20168;-68
2021/03/03 04:46:56;;;;;;;19.48;10.82;;;7.70;99.90;;;;;;5096300;28;20208;-68
2021/03/03 04:49:22;;;;;;;29.17;10.33;;;7.60;99.90;;;;;;5096349;28;20215;-67
2021/03/03 04:51:47;;;;;;;12.80;9.33;;;7.50;99.90;;;;;;5096061;28;20696;-68
2021/03/03 04:54:13;;;;;;;18.63;10.47;;;7.40;99.90;;;;;;5096468;28;20654;-68
2021/03/03 04:56:38;;;;;;;15.97;10.10;;;7.40;99.90;;;;;;5095896;28;20244;-68
2021/03/03 04:59:04;;;;;;;25.20;10.30;;;7.30;99.90;;;;;;5096120;28;20672;-67
2021/03/03 05:01:32;;;;;;;59.80;15.07;;;7.50;99.90;;;;;;5095828;28;20213;-68
2021/03/03 05:03:58;;;;;;;230.53;24.00;;;7.70;99.90;;;;;;5095879;28;20163;-68
2021/03/03 05:06:23;;;;;;;21.57;10.40;;;7.70;99.90;;;;;;5095895;28;20420;-69
2021/03/03 05:08:49;;;;;;;22.60;10.47;;;7.70;99.90;;;;;;5095488;28;20191;-69
2021/03/03 05:11:14;;;;;;;18.73;11.30;;;7.80;99.90;;;;;;5095450;28;20204;-68
2021/03/03 05:13:40;;;;;;;18.33;9.83;;;7.70;99.90;;;;;;5095755;28;20167;-69
2021/03/03 05:16:05;;;;;;;87.57;16.20;;;7.60;99.90;;;;;;5095198;28;20202;-68
2021/03/03 05:18:31;;;;;;;21.20;11.30;;;7.70;99.90;;;;;;5095536;28;20706;-69
2021/03/03 05:20:56;;;;;;;26.43;11.23;;;7.80;99.90;;;;;;5095464;28;20177;-68
2021/03/03 05:23:30;;;;;;;16.00;8.93;;;7.70;99.90;;;;;;5095768;28;20631;-68
2021/03/03 05:25:56;;;;;;;19.90;11.43;;;7.70;99.90;;;;;;5095399;28;20274;-69
2021/03/03 05:28:22;;;;;;;27.50;10.88;;;7.60;99.90;;;;;;5095680;28;20260;-68
2021/03/03 05:30:48;;;;;;;21.10;10.43;;;7.60;99.90;;;;;;5095181;28;20202;-69
2021/03/03 05:33:25;;;;;;;28.87;11.23;;;7.70;99.90;;;;;;5095512;28;20176;-69
2021/03/03 05:35:52;;;;;;;17.90;11.68;;;7.50;99.90;;;;;;5095511;28;20440;-69
2021/03/03 05:38:17;;;;;;;27.60;11.15;;;7.60;99.90;;;;;;5095145;28;20165;-69
2021/03/03 05:40:47;;;;;;;22.67;11.80;;;7.70;99.90;;;;;;5095330;28;20579;-68
2021/03/03 05:43:14;;;;;;;24.20;10.57;;;7.90;99.90;;;;;;5095023;28;20159;-68
2021/03/03 05:45:41;;;;;;;43.22;13.40;;;7.80;99.90;;;;;;5095354;28;20408;-69
2021/03/03 05:48:39;;;;;;;24.38;11.10;;;7.80;99.90;;;;;;5095247;28;20186;-68
2021/03/03 05:51:05;;;;;;;18.35;10.05;;;7.80;99.90;;;;;;5077348;28;20290;-69
2021/03/03 05:53:32;;;;;;;21.63;10.65;;;7.60;99.90;;;;;;5095132;28;20173;-69
2021/03/03 05:56:00;;;;;;;20.17;10.60;;;7.50;99.90;;;;;;5094579;28;20230;-69
2021/03/03 05:58:28;;;;;;;540.67;62.80;;;7.60;99.90;;;;;;5095143;28;20175;-69
2021/03/03 06:00:58;;;;;;;26.48;12.55;;;7.60;99.90;;;;;;5094564;28;20187;-68
2021/03/03 06:03:25;;;;;;;129.03;21.43;;;7.60;99.90;;;;;;5094639;28;20184;-68
2021/03/03 06:05:51;;;;;;;26.30;11.05;;;7.50;99.90;;;;;;5094526;28;20421;-69
2021/03/03 06:08:18;;;;;;;35.57;11.97;;;7.60;99.90;;;;;;5094409;28;20196;-67
2021/03/03 06:10:45;;;;;;;34.38;13.85;;;7.70;99.90;;;;;;5094310;28;20771;-69
2021/03/03 06:13:12;;;;;;;26.65;12.00;;;7.60;99.90;;;;;;5094512;28;20267;-69
2021/03/03 06:15:38;;;;;;;20.55;10.90;;;7.70;99.90;;;;;;5094437;28;20230;-68
2021/03/03 06:18:08;;;;;;;22.98;11.32;;;7.70;99.90;;;;;;5094551;28;20262;-68
2021/03/03 06:20:37;;;;;;;24.60;12.33;;;7.80;99.90;;;;;;5094258;28;20160;-69
2021/03/03 06:23:32;;;;;;;24.13;10.77;;;7.70;99.90;;;;;;5094262;28;20419;-69
2021/03/03 06:25:58;;;;;;;27.77;11.95;;;7.70;99.90;;;;;;5076591;28;20179;-69
2021/03/03 06:28:46;;;;;;;24.13;13.30;;;7.70;99.90;;;;;;5094477;28;20188;-68
2021/03/03 06:31:27;;;;;;;22.27;10.80;;;7.70;99.90;;;;;;5094259;28;20458;-69
2021/03/03 06:34:07;;;;;;;25.10;12.50;;;7.60;99.90;;;;;;5094190;28;20432;-69
2021/03/03 06:36:33;;;;;;;28.52;13.50;;;7.80;99.90;;;;;;5093887;28;20185;-69
2021/03/03 06:39:13;;;;;;;22.30;11.60;;;7.90;99.90;;;;;;5093819;28;20217;-67
2021/03/03 06:41:38;;;;;;;24.05;11.98;;;7.90;99.90;;;;;;5094160;28;20191;-68
2021/03/03 06:44:04;;;;;;;22.73;12.83;;;7.90;99.90;;;;;;5093756;28;20159;-69
2021/03/03 06:46:30;;;;;;;21.75;12.43;;;7.80;99.90;;;;;;5093944;28;20175;-69
2021/03/03 06:48:55;;;;;;;19.53;11.13;;;7.80;99.90;;;;;;5093671;28;20248;-67
2021/03/03 06:51:30;;;;;;;18.17;9.73;;;7.80;99.90;;;;;;5093376;28;20192;-67
2021/03/03 06:54:01;;;;;;;20.02;11.55;;;7.80;99.90;;;;;;5093419;28;20164;-67
2021/03/03 06:56:47;;;;;;;35.83;13.07;;;7.80;99.90;;;;;;5093358;28;20195;-68
2021/03/03 06:59:14;;;;;;;351.33;41.07;;;7.90;99.90;;;;;;5093784;28;20300;-67
2021/03/03 07:01:44;;;;;;;23.90;12.90;;;7.90;99.90;;;;;;5093444;28;20791;-67
2021/03/03 07:04:39;;;;;;;29.63;13.80;;;7.80;99.90;;;;;;5093182;28;20395;-67
2021/03/03 07:07:14;;;;;;;40.77;13.30;;;7.80;99.90;;;;;;5090947;28;20451;-67
2021/03/03 07:09:39;;;;;;;25.77;13.10;;;7.70;99.90;;;;;;5093397;28;20397;-67
2021/03/03 07:12:08;;;;;;;29.80;13.37;;;7.70;99.90;;;;;;5093117;28;20757;-68
2021/03/03 07:14:34;;;;;;;24.58;12.02;;;7.90;99.90;;;;;;5093266;28;20183;-68
2021/03/03 07:17:14;;;;;;;33.67;13.13;;;7.90;99.90;;;;;;5093215;28;20187;-68
2021/03/03 07:19:49;;;;;;;28.38;11.80;;;7.90;99.90;;;;;;5093648;28;20161;-68
2021/03/03 07:22:23;;;;;;;28.90;13.20;;;8.00;99.90;;;;;;5092979;28;20179;-69
2021/03/03 07:24:52;;;;;;;30.33;13.77;;;8.00;99.90;;;;;;5092832;28;20648;-69
2021/03/03 07:27:19;;;;;;;40.13;13.97;;;8.10;99.90;;;;;;5093092;28;20177;-68
2021/03/03 07:29:48;;;;;;;43.53;13.80;;;8.40;99.90;;;;;;5093485;28;20409;-68
2021/03/03 07:32:15;;;;;;;27.67;13.55;;;8.50;99.90;;;;;;5092823;28;20279;-68
2021/03/03 07:34:41;;;;;;;33.10;13.37;;;8.60;99.90;;;;;;5092870;28;20177;-68
2021/03/03 07:37:08;;;;;;;31.37;12.97;;;8.50;99.90;;;;;;5091753;28;20478;-68
2021/03/03 07:39:38;;;;;;;36.67;15.60;;;8.60;99.90;;;;;;5093574;28;20523;-68
2021/03/03 07:42:08;;;;;;;24.40;13.40;;;8.60;99.90;;;;;;5092919;28;20962;-68
2021/03/03 07:44:35;;;;;;;23.07;12.17;;;8.50;99.90;;;;;;5093198;28;20407;-68
2021/03/03 07:47:02;;;;;;;34.10;13.63;;;8.60;99.90;;;;;;5092976;28;20414;-68
2021/03/03 07:49:31;;;;;;;22.87;12.50;;;8.70;99.90;;;;;;5093044;28;20498;-69
2021/03/03 07:51:57;;;;;;;24.73;11.97;;;8.90;99.90;;;;;;5092679;28;20436;-69
2021/03/03 07:54:22;;;;;;;25.53;12.20;;;8.90;99.90;;;;;;5093137;28;20918;-68
2021/03/03 07:56:48;;;;;;;28.60;13.30;;;9.10;99.90;;;;;;5092745;28;20604;-68
2021/03/03 07:59:14;;;;;;;23.77;11.90;;;9.20;99.90;;;;;;5092557;28;20186;-68
2021/03/03 08:01:41;;;;;;;18.03;11.50;;;9.40;99.90;;;;;;5092521;28;20191;-68
2021/03/03 08:04:06;;;;;;;23.70;12.57;;;9.50;99.90;;;;;;5092397;28;20406;-69
2021/03/03 08:06:37;;;;;;;62.93;16.60;;;9.70;99.90;;;;;;5092569;28;20416;-69
2021/03/03 08:09:05;;;;;;;60.83;16.20;;;9.80;99.90;;;;;;5092302;28;20191;-69
2021/03/03 08:11:32;;;;;;;23.37;11.07;;;10.20;99.90;;;;;;5092618;28;20478;-69
2021/03/03 08:13:59;;;;;;;22.93;12.23;;;10.50;99.90;;;;;;5092771;28;20412;-68
2021/03/03 08:16:25;;;;;;;32.63;15.07;;;10.70;99.90;;;;;;5092167;28;20460;-69
2021/03/03 08:18:52;;;;;;;22.30;12.50;;;10.80;99.90;;;;;;5092425;28;20462;-69
2021/03/03 08:21:17;;;;;;;23.67;12.10;;;10.70;99.90;;;;;;5092340;28;20945;-69
2021/03/03 08:24:05;;;;;;;133.33;23.13;;;10.70;99.90;;;;;;5092480;28;20394;-69
2021/03/03 08:26:32;;;;;;;41.63;14.30;;;10.40;99.90;;;;;;5092512;28;20246;-68
2021/03/03 08:29:16;;;;;;;37.83;13.30;;;10.30;99.90;;;;;;5092345;28;20462;-69
2021/03/03 08:31:41;;;;;;;34.77;14.10;;;10.70;99.90;;;;;;5092276;28;20433;-69
2021/03/03 08:34:09;;;;;;;29.10;14.17;;;10.50;99.90;;;;;;5092563;28;20484;-69
2021/03/03 08:36:36;;;;;;;50.87;15.80;;;10.60;99.90;;;;;;5091978;28;20256;-68
2021/03/03 08:39:02;;;;;;;39.50;16.57;;;10.70;99.90;;;;;;5092252;28;20885;-70
2021/03/03 08:41:34;;;;;;;41.20;14.60;;;11.20;99.90;;;;;;5092328;28;20421;-69
2021/03/03 08:44:07;;;;;;;36.87;14.50;;;11.40;99.90;;;;;;5092886;28;20401;-70
2021/03/03 08:46:38;;;;;;;31.33;12.43;;;11.50;99.90;;;;;;5092552;28;20390;-68
2021/03/03 08:49:04;;;;;;;23.20;12.70;;;11.70;99.90;;;;;;5095516;28;20378;-70
2021/03/03 08:51:50;;;;;;;27.17;13.30;;;11.80;99.90;;;;;;5095568;28;20429;-68
2021/03/03 08:54:16;;;;;;;30.87;14.40;;;11.90;99.90;;;;;;5095454;28;20278;-67
2021/03/03 08:56:52;;;;;;;22.57;12.40;;;11.90;99.90;;;;;;5095440;28;20452;-68
2021/03/03 08:59:36;;;;;;;23.27;13.43;;;12.20;99.90;;;;;;5095540;28;20393;-67
2021/03/03 09:02:15;;;;;;;17.07;11.77;;;12.40;99.90;;;;;;5095428;28;20831;-68
2021/03/03 09:04:50;;;;;;;25.30;12.77;;;12.40;99.90;;;;;;5095495;28;20446;-69
2021/03/03 09:07:29;;;;;;;43.23;15.50;;;12.50;99.90;;;;;;5095281;28;20425;-68
2021/03/03 09:10:18;;;;;;;22.27;13.50;;;12.50;99.90;;;;;;5095630;28;20397;-69
2021/03/03 09:12:45;;;;;;;16.37;11.70;;;12.70;99.90;;;;;;5095786;28;20468;-68
2021/03/03 09:15:13;;;;;;;22.63;13.30;;;12.80;99.90;;;;;;5095706;28;20401;-69
2021/03/03 09:17:40;;;;;;;42.93;14.10;;;12.80;99.90;;;;;;5095510;28;20453;-68
2021/03/03 09:20:15;;;;;;;22.93;13.07;;;12.80;99.90;;;;;;5095620;28;20934;-68
2021/03/03 09:22:46;;;;;;;22.30;12.50;;;13.10;99.90;;;;;;5095215;28;20452;-68
2021/03/03 09:25:17;;;;;;;19.13;11.70;;;13.10;99.90;;;;;;5095399;28;20417;-68
2021/03/03 09:27:54;;;;;;;26.83;12.70;;;13.20;99.90;;;;;;5095353;28;20781;-69
2021/03/03 09:30:21;;;;;;;22.23;12.20;;;13.50;99.90;;;;;;5094882;28;20409;-68
2021/03/03 09:32:48;;;;;;;35.40;12.43;;;13.60;99.90;;;;;;5094855;28;20791;-69
2021/03/03 09:35:14;;;;;;;23.07;12.83;;;13.70;99.90;;;;;;5095044;28;20426;-69
2021/03/03 09:37:43;;;;;;;26.57;13.77;;;13.70;99.90;;;;;;5095261;28;20966;-69
2021/03/03 09:40:14;;;;;;;24.07;12.97;;;13.80;99.90;;;;;;5094842;28;20403;-69
2021/03/03 09:42:48;;;;;;;28.50;13.20;;;13.70;99.90;;;;;;5094874;28;20456;-67
2021/03/03 09:45:18;;;;;;;21.83;11.70;;;13.80;99.90;;;;;;5094342;28;20402;-68
2021/03/03 09:47:44;;;;;;;25.37;12.03;;;14.00;99.90;;;;;;5094453;28;20410;-68
2021/03/03 09:50:11;;;;;;;49.07;15.07;;;14.20;99.90;;;;;;5094300;28;20955;-69
2021/03/03 09:52:45;;;;;;;33.40;11.80;;;14.10;99.90;;;;;;5094843;28;20415;-68
2021/03/03 09:55:16;;;;;;;31.47;13.77;;;14.20;99.90;;;;;;5094929;28;20489;-69
2021/03/03 09:57:43;;;;;;;40.63;18.80;;;14.20;99.90;;;;;;5094194;28;20947;-69
2021/03/03 10:00:11;;;;;;;26.07;14.73;;;14.30;99.90;;;;;;5092992;28;20406;-69
2021/03/03 10:02:40;;;;;;;20.53;11.83;;;14.50;99.90;;;;;;5094407;28;20433;-69
2021/03/03 10:05:06;;;;;;;21.90;12.80;;;14.90;99.90;;;;;;5094224;28;20431;-68
2021/03/03 10:07:33;;;;;;;18.83;11.90;;;14.90;99.90;;;;;;5093869;28;20443;-69
2021/03/03 10:10:00;;;;;;;22.37;11.80;;;14.70;99.90;;;;;;5094397;28;20401;-68
2021/03/03 10:12:36;;;;;;;25.63;12.57;;;15.10;99.90;;;;;;5093922;28;20947;-69
2021/03/03 10:15:10;;;;;;;28.90;14.27;;;15.20;99.90;;;;;;5094375;28;20549;-68
2021/03/03 10:18:02;;;;;;;22.40;13.30;;;15.40;99.90;;;;;;5093802;28;20483;-69
2021/03/03 10:20:38;;;;;;;29.37;13.40;;;15.30;99.90;;;;;;5094357;28;20384;-66
2021/03/03 10:23:17;;;;;;;22.50;12.27;;;15.40;99.90;;;;;;5092602;28;20419;-68
2021/03/03 10:25:42;;;;;;;24.43;12.00;;;15.60;99.90;;;;;;5093867;28;20772;-68
2021/03/03 10:28:08;;;;;;;19.97;12.07;;;15.70;99.90;;;;;;5093735;28;20495;-68
2021/03/03 10:30:34;;;;;;;21.27;12.13;;;16.00;99.90;;;;;;5093605;28;20183;-70
2021/03/03 10:33:00;;;;;;;27.00;11.47;;;16.20;99.90;;;;;;5094331;28;20628;-68
2021/03/03 10:35:29;;;;;;;21.17;11.37;;;16.00;99.90;;;;;;5093611;28;20488;-68
2021/03/03 10:38:08;;;;;;;39.57;16.73;;;16.00;99.90;;;;;;5094629;28;20398;-68
2021/03/03 10:40:38;;;;;;;23.77;13.43;;;15.90;99.90;;;;;;5093672;28;20393;-69
2021/03/03 10:43:34;;;;;;;56.77;16.40;;;15.90;99.90;;;;;;5093510;28;20424;-68
2021/03/03 10:46:12;;;;;;;22.47;13.10;;;16.60;99.90;;;;;;5089537;28;20424;-68
2021/03/03 10:48:39;;;;;;;26.90;13.27;;;16.80;99.90;;;;;;5093730;28;20903;-68
2021/03/03 10:51:05;;;;;;;21.83;12.83;;;16.90;99.90;;;;;;5092195;28;20426;-69
2021/03/03 10:53:48;;;;;;;32.00;15.10;;;16.90;99.90;;;;;;5093373;28;20977;-69
2021/03/03 10:56:19;;;;;;;38.53;16.03;;;17.20;99.90;;;;;;5093355;28;20446;-68
2021/03/03 10:58:45;;;;;;;28.73;15.60;;;16.90;99.90;;;;;;5093734;28;20781;-68
2021/03/03 11:01:10;;;;;;;27.20;16.10;;;17.20;99.90;;;;;;5091930;28;20436;-68
2021/03/03 11:03:54;;;;;;;27.97;14.90;;;17.40;99.90;;;;;;5093577;28;20221;-68
2021/03/03 11:06:21;;;;;;;33.40;15.53;;;17.20;99.90;;;;;;5093166;28;20172;-69
2021/03/03 11:08:47;;;;;;;25.87;16.87;;;16.80;99.90;;;;;;5092664;28;20442;-69
2021/03/03 11:11:13;;;;;;;28.67;16.43;;;17.20;99.90;;;;;;5092866;28;20433;-69
2021/03/03 11:13:39;;;;;;;27.97;17.60;;;17.40;99.90;;;;;;5093428;28;20186;-69
2021/03/03 11:16:05;;;;;;;24.43;15.00;;;17.80;99.90;;;;;;5092814;28;20855;-70
2021/03/03 11:18:31;;;;;;;25.50;16.27;;;17.90;99.90;;;;;;5093542;28;20258;-67
2021/03/03 11:20:57;;;;;;;33.20;18.60;;;18.20;99.90;;;;;;5093483;28;20173;-68
2021/03/03 11:23:23;;;;;;;26.40;16.70;;;18.10;99.90;;;;;;5092843;28;20809;-67
2021/03/03 11:25:48;;;;;;;41.30;18.77;;;17.90;99.90;;;;;;5093515;28;20409;-69
2021/03/03 11:28:14;;;;;;;38.53;18.23;;;18.10;99.90;;;;;;5094285;28;20184;-69
2021/03/03 11:30:39;;;;;;;32.07;18.93;;;18.30;99.90;;;;;;5092916;28;20180;-69
2021/03/03 11:33:05;;;;;;;33.33;20.30;;;18.60;99.90;;;;;;5093093;28;20167;-69
2021/03/03 11:35:31;;;;;;;36.20;19.20;;;18.80;99.90;;;;;;5092518;28;20182;-68
2021/03/03 11:37:56;;;;;;;25.17;18.10;;;18.30;99.90;;;;;;5092619;28;20408;-69
2021/03/03 11:40:22;;;;;;;32.77;18.77;;;18.30;99.90;;;;;;5092223;28;20185;-69
2021/03/03 11:42:48;;;;;;;33.90;17.90;;;18.40;99.90;;;;;;5092790;28;20187;-69
2021/03/03 11:45:14;;;;;;;28.50;19.13;;;18.80;99.90;;;;;;5092731;28;20178;-68
2021/03/03 11:47:41;;;;;;;37.23;21.03;;;19.00;99.90;;;;;;5093020;28;20715;-67
2021/03/03 11:50:07;;;;;;;43.60;20.80;;;19.10;99.90;;;;;;5092683;28;20402;-68
2021/03/03 11:52:32;;;;;;;32.57;21.00;;;19.00;99.90;;;;;;5092836;28;20734;-67
2021/03/03 11:54:58;;;;;;;39.53;21.60;;;19.10;99.90;;;;;;5092996;28;20504;-68
2021/03/03 11:57:23;;;;;;;32.90;19.40;;;19.00;99.90;;;;;;5092445;28;20275;-67
2021/03/03 11:59:52;;;;;;;30.13;19.43;;;19.50;99.90;;;;;;5092628;28;20207;-69
2021/03/03 12:02:17;;;;;;;29.87;19.00;;;19.80;99.90;;;;;;5092250;28;20263;-69
2021/03/03 12:04:43;;;;;;;36.93;19.30;;;19.80;99.90;;;;;;5092893;28;20411;-69
2021/03/03 12:07:09;;;;;;;29.80;18.07;;;20.00;99.90;;;;;;5092559;28;20189;-69
2021/03/03 12:09:35;;;;;;;30.13;18.37;;;19.80;99.90;;;;;;5093195;28;20407;-69
2021/03/03 12:12:02;;;;;;;30.63;20.00;;;18.80;99.90;;;;;;5093100;28;20434;-69
2021/03/03 12:14:27;;;;;;;30.63;19.20;;;19.10;99.90;;;;;;5092507;28;20415;-68
2021/03/03 12:16:53;;;;;;;52.93;20.53;;;19.10;99.90;;;;;;5093903;28;20818;-68
2021/03/03 12:19:19;;;;;;;37.23;18.73;;;19.20;99.90;;;;;;5092677;28;20198;-69
2021/03/03 12:21:44;;;;;;;29.50;20.40;;;19.40;99.90;;;;;;5092039;28;20707;-68
2021/03/03 12:24:10;;;;;;;37.43;20.90;;;19.90;99.90;;;;;;5095190;28;20170;-69
2021/03/03 12:26:36;;;;;;;28.17;18.43;;;20.10;99.90;;;;;;5096058;28;20536;-68
2021/03/03 12:29:01;;;;;;;36.27;19.10;;;20.30;99.90;;;;;;5096388;28;20203;-69
2021/03/03 12:31:27;;;;;;;29.30;17.80;;;20.60;99.90;;;;;;5096452;28;20199;-68
2021/03/03 12:33:52;;;;;;;35.00;18.67;;;20.20;99.90;;;;;;5096505;28;20209;-68
2021/03/03 12:36:18;;;;;;;34.47;18.70;;;19.80;99.90;;;;;;5096330;28;20288;-68
2021/03/03 12:38:43;;;;;;;30.67;18.87;;;20.30;99.90;;;;;;5096289;28;20540;-69
2021/03/03 12:41:09;;;;;;;33.40;20.60;;;20.70;99.90;;;;;;5096575;28;20201;-69
2021/03/03 12:43:34;;;;;;;34.63;22.07;;;20.40;99.90;;;;;;5096414;28;20193;-69